createdAt,value
2017-05-14T00:00:10.607Z,1016.68
2017-05-14T00:05:03.292Z,1016.72
2017-05-14T00:10:03.112Z,1016.76
2017-05-14T00:15:02.809Z,1016.79
2017-05-14T00:20:18.548Z,1016.84
2017-05-14T00:25:03.237Z,1016.77
2017-05-14T00:30:02.958Z,1016.81
2017-05-14T00:35:02.747Z,1016.81
2017-05-14T00:40:03.629Z,1016.85
2017-05-14T00:45:34.470Z,1016.92
2017-05-14T00:50:03.011Z,1016.9
2017-05-14T00:55:02.704Z,1016.9
2017-05-14T01:00:03.462Z,1016.97
2017-05-14T01:05:03.222Z,1016.98
2017-05-14T01:10:17.980Z,1017.07
2017-05-14T01:15:03.633Z,1017.14
2017-05-14T01:20:03.437Z,1017.11
2017-05-14T01:25:03.083Z,1017.1
2017-05-14T01:30:02.721Z,1017.15
2017-05-14T01:35:03.445Z,1017.21
2017-05-14T01:40:03.263Z,1017.26
2017-05-14T01:45:03.000Z,1017.29
2017-05-14T01:50:02.888Z,1017.3
2017-05-14T01:55:03.555Z,1017.31
2017-05-14T02:00:10.190Z,1017.29
2017-05-14T02:05:02.775Z,1017.33
2017-05-14T02:10:03.613Z,1017.29
2017-05-14T02:15:03.381Z,1017.32
2017-05-14T02:20:03.032Z,1017.32
2017-05-14T02:25:02.686Z,1017.38
2017-05-14T02:30:03.277Z,1017.38
2017-05-14T02:35:02.919Z,1017.38
2017-05-14T02:40:02.676Z,1017.45
2017-05-14T02:45:03.507Z,1017.39
2017-05-14T02:50:03.209Z,1017.36
2017-05-14T02:55:02.814Z,1017.41
2017-05-14T03:00:03.532Z,1017.45
2017-05-14T03:05:03.148Z,1017.53
2017-05-14T03:10:02.820Z,1017.56
2017-05-14T03:15:03.600Z,1017.54
2017-05-14T03:20:04.244Z,1017.54
2017-05-14T03:25:02.968Z,1017.54
2017-05-14T03:30:03.564Z,1017.5
2017-05-14T03:35:03.224Z,1017.52
2017-05-14T03:40:03.014Z,1017.56
2017-05-14T03:45:02.639Z,1017.55
2017-05-14T03:50:03.321Z,1017.53
2017-05-14T03:55:02.845Z,1017.58
2017-05-14T04:00:03.484Z,1017.59
2017-05-14T04:05:03.086Z,1017.46
2017-05-14T04:10:02.810Z,1017.34
2017-05-14T04:15:03.396Z,1017.4
2017-05-14T04:20:03.232Z,1017.54
2017-05-14T04:25:02.966Z,1017.66
2017-05-14T04:30:03.693Z,1017.72
2017-05-14T04:35:03.449Z,1017.76
2017-05-14T04:40:03.308Z,1017.72
2017-05-14T04:45:03.004Z,1017.76
2017-05-14T04:50:03.632Z,1017.78
2017-05-14T04:55:03.304Z,1017.78
2017-05-14T05:00:03.053Z,1017.74
2017-05-14T05:05:02.807Z,1017.83
2017-05-14T05:10:03.594Z,1017.83
2017-05-14T05:15:03.145Z,1017.87
2017-05-14T05:20:02.886Z,1017.92
2017-05-14T05:25:02.681Z,1017.87
2017-05-14T05:30:03.305Z,1017.95
2017-05-14T05:35:03.032Z,1017.96
2017-05-14T05:40:03.651Z,1018.06
2017-05-14T05:45:03.521Z,1018.05
2017-05-14T05:50:03.228Z,1018.07
2017-05-14T05:55:02.763Z,1018.04
2017-05-14T06:00:03.385Z,1018.1
2017-05-14T06:05:03.042Z,1018.19
2017-05-14T06:10:02.740Z,1018.19
2017-05-14T06:15:03.334Z,1018.25
2017-05-14T06:20:02.923Z,1018.29
2017-05-14T06:25:03.669Z,1018.37
2017-05-14T06:30:03.299Z,1018.47
2017-05-14T06:35:02.903Z,1018.45
2017-05-14T06:40:03.660Z,1018.46
2017-05-14T06:45:03.263Z,1018.48
2017-05-14T06:50:02.856Z,1018.41
2017-05-14T06:55:03.523Z,1018.5
2017-05-14T07:00:03.140Z,1018.49
2017-05-14T07:05:02.930Z,1018.7
2017-05-14T07:10:03.664Z,1018.7
2017-05-14T07:15:03.472Z,1018.65
2017-05-14T07:20:03.090Z,1018.74
2017-05-14T07:25:02.788Z,1018.69
2017-05-14T07:30:02.705Z,1018.66
2017-05-14T07:35:03.545Z,1018.84
2017-05-14T07:40:03.268Z,1018.87
2017-05-14T07:45:02.981Z,1018.87
2017-05-14T07:50:03.236Z,1018.91
2017-05-14T07:55:03.298Z,1018.97
2017-05-14T08:00:03.233Z,1018.99
2017-05-14T08:05:03.032Z,1019.08
2017-05-14T08:10:03.184Z,1019.06
2017-05-14T08:15:02.820Z,1019.02
2017-05-14T08:20:03.523Z,1019.01
2017-05-14T08:25:03.540Z,1019.02
2017-05-14T08:30:03.166Z,1019.02
2017-05-14T08:35:02.740Z,1019.02
2017-05-14T08:40:03.550Z,1019.12
2017-05-14T08:45:03.165Z,1019.06
2017-05-14T08:50:02.973Z,1019.11
2017-05-14T08:55:03.662Z,1019.13
2017-05-14T09:00:03.458Z,1019.16
2017-05-14T09:05:03.070Z,1019.22
2017-05-14T09:10:02.843Z,1019.29
2017-05-14T09:15:02.648Z,1019.32
2017-05-14T09:20:03.407Z,1019.33
2017-05-14T09:25:03.149Z,1019.33
2017-05-14T09:30:02.909Z,1019.37
2017-05-14T09:35:03.593Z,1019.31
2017-05-14T09:40:03.669Z,1019.27
2017-05-14T09:45:03.418Z,1019.4
2017-05-14T09:50:03.101Z,1019.42
2017-05-14T09:55:02.708Z,1019.34
2017-05-14T10:00:03.540Z,1019.36
2017-05-14T10:05:03.288Z,1019.48
2017-05-14T10:10:03.118Z,1019.3
2017-05-14T10:15:02.706Z,1019.32
2017-05-14T10:20:03.394Z,1019.37
2017-05-14T10:25:03.372Z,1019.43
2017-05-14T10:30:03.282Z,1019.36
2017-05-14T10:35:02.994Z,1019.42
2017-05-14T10:40:03.029Z,1019.28
2017-05-14T10:45:03.456Z,1019.48
2017-05-14T10:50:03.035Z,1019.34
2017-05-14T10:55:03.201Z,1019.47
2017-05-14T11:00:03.221Z,1019.46
2017-05-14T11:05:02.690Z,1019.47
2017-05-14T11:10:02.933Z,1019.37
2017-05-14T11:15:02.696Z,1019.56
2017-05-14T11:20:03.464Z,1019.49
2017-05-14T11:25:03.597Z,1019.48
2017-05-14T11:30:02.748Z,1019.53
2017-05-14T11:35:02.868Z,1019.56
2017-05-14T11:40:02.823Z,1019.51
2017-05-14T11:45:02.726Z,1019.54
2017-05-14T11:50:03.452Z,1019.4
2017-05-14T11:55:03.112Z,1019.64
2017-05-14T12:00:02.694Z,1019.48
2017-05-14T12:05:03.308Z,1019.54
2017-05-14T12:10:03.103Z,1019.58
2017-05-14T12:15:02.977Z,1019.56
2017-05-14T12:20:02.993Z,1019.69
2017-05-14T12:25:02.675Z,1019.55
2017-05-14T12:30:03.298Z,1019.59
2017-05-14T12:35:02.929Z,1019.53
2017-05-14T12:40:02.965Z,1019.48
2017-05-14T12:45:03.219Z,1019.64
2017-05-14T12:50:03.437Z,1019.65
2017-05-14T12:55:02.891Z,1019.77
2017-05-14T13:00:03.378Z,1019.64
2017-05-14T13:05:02.811Z,1019.64
2017-05-14T13:10:03.463Z,1019.62
2017-05-14T13:15:03.295Z,1019.68
2017-05-14T13:20:03.601Z,1019.64
2017-05-14T13:25:02.837Z,1019.78
2017-05-14T13:30:02.894Z,1019.79
2017-05-14T13:35:02.760Z,1019.75
2017-05-14T13:40:02.805Z,1019.78
2017-05-14T13:45:02.881Z,1019.79
2017-05-14T13:50:02.998Z,1019.84
2017-05-14T13:55:02.739Z,1019.81
2017-05-14T14:00:03.660Z,1019.81
2017-05-14T14:05:03.338Z,1019.92
2017-05-14T14:10:03.560Z,1019.89
2017-05-14T14:15:02.736Z,1020.02
2017-05-14T14:20:03.300Z,1019.99
2017-05-14T14:25:02.881Z,1020.07
2017-05-14T14:30:02.879Z,1020.3
2017-05-14T14:35:03.475Z,1020.18
2017-05-14T14:40:03.105Z,1020.3
2017-05-14T14:45:03.263Z,1020.58
2017-05-14T14:50:03.377Z,1020.36
2017-05-14T14:55:03.469Z,1020.69
2017-05-14T15:00:03.183Z,1020.78
2017-05-14T15:05:03.447Z,1020.87
2017-05-14T15:10:03.004Z,1020.88
2017-05-14T15:15:03.582Z,1020.94
2017-05-14T15:20:03.597Z,1020.93
2017-05-14T15:25:02.999Z,1020.97
2017-05-14T15:30:02.802Z,1020.99
2017-05-14T15:35:03.638Z,1020.98
2017-05-14T15:40:02.842Z,1021.09
2017-05-14T15:45:03.089Z,1021.15
2017-05-14T15:50:02.710Z,1021.21
2017-05-14T15:55:03.634Z,1021.31
2017-05-14T16:00:03.020Z,1021.29
2017-05-14T16:05:02.745Z,1021.21
2017-05-14T16:10:03.194Z,1021.24
2017-05-14T16:15:03.291Z,1021.32
2017-05-14T16:20:02.807Z,1021.42
2017-05-14T16:25:03.569Z,1021.44
2017-05-14T16:30:03.682Z,1021.42
2017-05-14T16:35:02.970Z,1021.37
2017-05-14T16:40:02.896Z,1021.36
2017-05-14T16:45:02.724Z,1021.43
2017-05-14T16:50:03.669Z,1021.47
2017-05-14T16:55:02.680Z,1021.46
2017-05-14T17:00:02.775Z,1021.58
2017-05-14T17:05:03.427Z,1021.67
2017-05-14T17:10:02.743Z,1021.61
2017-05-14T17:15:03.414Z,1021.61
2017-05-14T17:20:03.289Z,1021.75
2017-05-14T17:25:03.169Z,1021.76
2017-05-14T17:30:02.982Z,1021.8
2017-05-14T17:35:02.755Z,1021.85
2017-05-14T17:40:02.916Z,1021.84
2017-05-14T17:45:03.610Z,1022.07
2017-05-14T17:50:02.662Z,1022.23
2017-05-14T17:55:03.509Z,1022.27
2017-05-14T18:00:03.315Z,1022.2
2017-05-14T18:05:03.578Z,1022.14
2017-05-14T18:10:03.618Z,1022.22
2017-05-14T18:15:02.967Z,1022.24
2017-05-14T18:20:03.035Z,1022.34
2017-05-14T18:25:02.703Z,1022.43
2017-05-14T18:30:02.772Z,1022.45
2017-05-14T18:35:03.486Z,1022.57
2017-05-14T18:40:02.720Z,1022.64
2017-05-14T18:45:03.262Z,1022.77
2017-05-14T18:50:02.976Z,1022.77
2017-05-14T18:55:02.787Z,1022.83
2017-05-14T19:00:03.601Z,1022.85
2017-05-14T19:05:02.694Z,1022.87
2017-05-14T19:10:03.448Z,1022.94
2017-05-14T19:15:03.563Z,1023.02
2017-05-14T19:20:02.736Z,1023.04
2017-05-14T19:25:02.938Z,1023.13
2017-05-14T19:30:02.965Z,1023.16
2017-05-14T19:35:03.618Z,1023.34
2017-05-14T19:40:02.702Z,1023.43
2017-05-14T19:45:03.615Z,1023.53
2017-05-14T19:50:03.503Z,1023.77
2017-05-14T19:55:03.453Z,1023.91
2017-05-14T20:00:03.123Z,1023.98
2017-05-14T20:05:02.758Z,1024.02
2017-05-14T20:10:02.692Z,1024.01
2017-05-14T20:15:02.696Z,1024.14
2017-05-14T20:20:02.996Z,1024.17
2017-05-14T20:25:02.811Z,1024.19
2017-05-14T20:30:02.852Z,1024.25
2017-05-14T20:35:03.488Z,1024.26
2017-05-14T20:40:02.980Z,1024.33
2017-05-14T20:45:03.196Z,1024.28
2017-05-14T20:50:02.864Z,1024.29
2017-05-14T20:55:02.654Z,1024.29
2017-05-14T21:00:03.553Z,1024.34
2017-05-14T21:05:03.454Z,1024.42
2017-05-14T21:10:03.210Z,1024.33
2017-05-14T21:15:02.837Z,1024.34
2017-05-14T21:20:03.460Z,1024.43
2017-05-14T21:25:03.357Z,1024.46
2017-05-14T21:30:03.300Z,1024.49
2017-05-14T21:35:02.951Z,1024.53
2017-05-14T21:40:03.571Z,1024.64
2017-05-14T21:45:03.208Z,1024.67
2017-05-14T21:50:02.957Z,1024.69
2017-05-14T21:55:02.764Z,1024.78
2017-05-14T22:00:03.406Z,1024.87
2017-05-14T22:05:03.018Z,1024.86
2017-05-14T22:10:02.820Z,1024.94
2017-05-14T22:15:03.506Z,1024.98
2017-05-14T22:20:03.183Z,1025.09
2017-05-14T22:25:02.884Z,1025.14
2017-05-14T22:30:03.539Z,1025.13
2017-05-14T22:35:03.299Z,1025.24
2017-05-14T22:40:02.925Z,1025.34
2017-05-14T22:45:02.759Z,1025.4
2017-05-14T22:50:03.567Z,1025.46
2017-05-14T22:55:03.517Z,1025.48
2017-05-14T23:00:03.262Z,1025.5
2017-05-14T23:05:03.134Z,1025.44
2017-05-14T23:10:02.844Z,1025.5
2017-05-14T23:15:03.555Z,1025.58
2017-05-14T23:20:03.228Z,1025.65
2017-05-14T23:25:02.970Z,1025.58
2017-05-14T23:30:02.757Z,1025.64
2017-05-14T23:35:03.532Z,1025.61
2017-05-14T23:40:03.210Z,1025.63
2017-05-14T23:45:02.837Z,1025.76
2017-05-14T23:50:03.585Z,1025.79
2017-05-14T23:55:03.502Z,1025.8
